sensor_id;sensor_type;location;lat;lon;timestamp;P1;durP1;ratioP1;P2;durP2;ratioP2
36233;SDS011;43467;50.890;5.982;2023-06-10T00:01:28;11.55;;;8.27;;
36233;SDS011;43467;50.890;5.982;2023-06-10T00:03:55;10.30;;;7.32;;
36233;SDS011;43467;50.890;5.982;2023-06-10T00:06:21;10.93;;;7.90;;
36233;SDS011;43467;50.890;5.982;2023-06-10T00:08:50;10.73;;;8.40;;
36233;SDS011;43467;50.890;5.982;2023-06-10T00:11:16;10.32;;;7.30;;
36233;SDS011;43467;50.890;5.982;2023-06-10T00:13:41;10.45;;;7.72;;
36233;SDS011;43467;50.890;5.982;2023-06-10T00:16:07;12.40;;;8.20;;
36233;SDS011;43467;50.890;5.982;2023-06-10T00:18:33;8.40;;;7.45;;
36233;SDS011;43467;50.890;5.982;2023-06-10T00:21:02;9.15;;;7.15;;
36233;SDS011;43467;50.890;5.982;2023-06-10T00:23:30;13.70;;;8.30;;
36233;SDS011;43467;50.890;5.982;2023-06-10T00:25:59;8.98;;;8.02;;
36233;SDS011;43467;50.890;5.982;2023-06-10T00:28:25;11.82;;;7.53;;
36233;SDS011;43467;50.890;5.982;2023-06-10T00:30:51;8.20;;;7.32;;
36233;SDS011;43467;50.890;5.982;2023-06-10T00:33:16;12.25;;;7.60;;
36233;SDS011;43467;50.890;5.982;2023-06-10T00:35:42;10.77;;;8.77;;
36233;SDS011;43467;50.890;5.982;2023-06-10T00:38:08;10.82;;;8.38;;
36233;SDS011;43467;50.890;5.982;2023-06-10T00:40:38;10.02;;;8.05;;
36233;SDS011;43467;50.890;5.982;2023-06-10T00:43:05;9.65;;;7.60;;
36233;SDS011;43467;50.890;5.982;2023-06-10T00:45:31;12.45;;;7.70;;
36233;SDS011;43467;50.890;5.982;2023-06-10T00:47:57;9.43;;;7.07;;
36233;SDS011;43467;50.890;5.982;2023-06-10T00:50:24;9.30;;;7.78;;
36233;SDS011;43467;50.890;5.982;2023-06-10T00:52:49;13.13;;;7.88;;
36233;SDS011;43467;50.890;5.982;2023-06-10T00:55:16;9.57;;;7.68;;
36233;SDS011;43467;50.890;5.982;2023-06-10T00:57:44;10.13;;;8.05;;
36233;SDS011;43467;50.890;5.982;2023-06-10T01:00:11;10.30;;;8.40;;
36233;SDS011;43467;50.890;5.982;2023-06-10T01:02:37;10.52;;;7.82;;
36233;SDS011;43467;50.890;5.982;2023-06-10T01:05:03;9.60;;;7.63;;
36233;SDS011;43467;50.890;5.982;2023-06-10T01:07:40;8.30;;;7.35;;
36233;SDS011;43467;50.890;5.982;2023-06-10T01:10:43;11.75;;;8.82;;
36233;SDS011;43467;50.890;5.982;2023-06-10T01:13:15;17.83;;;8.00;;
36233;SDS011;43467;50.890;5.982;2023-06-10T01:15:43;13.32;;;8.93;;
36233;SDS011;43467;50.890;5.982;2023-06-10T01:18:09;13.93;;;8.30;;
36233;SDS011;43467;50.890;5.982;2023-06-10T01:20:40;11.85;;;8.27;;
36233;SDS011;43467;50.890;5.982;2023-06-10T01:23:09;11.55;;;7.82;;
36233;SDS011;43467;50.890;5.982;2023-06-10T01:25:44;9.68;;;8.20;;
36233;SDS011;43467;50.890;5.982;2023-06-10T01:28:19;15.55;;;8.75;;
36233;SDS011;43467;50.890;5.982;2023-06-10T01:30:55;10.25;;;7.78;;
36233;SDS011;43467;50.890;5.982;2023-06-10T01:33:33;12.48;;;8.65;;
36233;SDS011;43467;50.890;5.982;2023-06-10T01:36:03;11.43;;;8.48;;
36233;SDS011;43467;50.890;5.982;2023-06-10T01:38:32;12.25;;;7.97;;
36233;SDS011;43467;50.890;5.982;2023-06-10T01:41:04;12.55;;;8.23;;
36233;SDS011;43467;50.890;5.982;2023-06-10T01:43:34;11.85;;;8.63;;
36233;SDS011;43467;50.890;5.982;2023-06-10T01:46:00;13.27;;;8.48;;
36233;SDS011;43467;50.890;5.982;2023-06-10T01:48:26;11.82;;;8.45;;
36233;SDS011;43467;50.890;5.982;2023-06-10T01:50:52;13.63;;;9.05;;
36233;SDS011;43467;50.890;5.982;2023-06-10T01:53:18;11.65;;;8.77;;
36233;SDS011;43467;50.890;5.982;2023-06-10T01:55:44;12.32;;;8.52;;
36233;SDS011;43467;50.890;5.982;2023-06-10T01:58:09;11.38;;;8.57;;
36233;SDS011;43467;50.890;5.982;2023-06-10T02:00:35;9.98;;;8.85;;
36233;SDS011;43467;50.890;5.982;2023-06-10T02:03:01;14.25;;;8.05;;
36233;SDS011;43467;50.890;5.982;2023-06-10T02:05:26;11.00;;;8.52;;
36233;SDS011;43467;50.890;5.982;2023-06-10T02:07:52;11.98;;;8.75;;
36233;SDS011;43467;50.890;5.982;2023-06-10T02:10:17;9.07;;;8.15;;
36233;SDS011;43467;50.890;5.982;2023-06-10T02:12:43;11.70;;;8.88;;
36233;SDS011;43467;50.890;5.982;2023-06-10T02:15:09;14.60;;;9.32;;
36233;SDS011;43467;50.890;5.982;2023-06-10T02:17:35;14.65;;;8.73;;
36233;SDS011;43467;50.890;5.982;2023-06-10T02:20:00;14.00;;;8.85;;
36233;SDS011;43467;50.890;5.982;2023-06-10T02:22:29;11.85;;;8.73;;
36233;SDS011;43467;50.890;5.982;2023-06-10T02:24:54;11.20;;;9.40;;
36233;SDS011;43467;50.890;5.982;2023-06-10T02:27:20;12.73;;;8.30;;
36233;SDS011;43467;50.890;5.982;2023-06-10T02:29:46;9.57;;;8.63;;
36233;SDS011;43467;50.890;5.982;2023-06-10T02:32:11;13.43;;;9.65;;
36233;SDS011;43467;50.890;5.982;2023-06-10T02:34:37;12.27;;;8.70;;
36233;SDS011;43467;50.890;5.982;2023-06-10T02:37:03;13.30;;;9.23;;
36233;SDS011;43467;50.890;5.982;2023-06-10T02:39:29;11.57;;;9.38;;
36233;SDS011;43467;50.890;5.982;2023-06-10T02:41:54;10.40;;;8.98;;
36233;SDS011;43467;50.890;5.982;2023-06-10T02:44:20;11.60;;;9.00;;
36233;SDS011;43467;50.890;5.982;2023-06-10T02:46:45;10.93;;;8.85;;
36233;SDS011;43467;50.890;5.982;2023-06-10T02:49:11;10.95;;;8.65;;
36233;SDS011;43467;50.890;5.982;2023-06-10T02:51:37;11.25;;;9.10;;
36233;SDS011;43467;50.890;5.982;2023-06-10T02:54:03;16.85;;;9.30;;
36233;SDS011;43467;50.890;5.982;2023-06-10T02:56:29;14.43;;;8.80;;
36233;SDS011;43467;50.890;5.982;2023-06-10T02:58:55;11.52;;;9.48;;
36233;SDS011;43467;50.890;5.982;2023-06-10T03:01:21;13.07;;;9.40;;
36233;SDS011;43467;50.890;5.982;2023-06-10T03:03:46;10.98;;;9.43;;
36233;SDS011;43467;50.890;5.982;2023-06-10T03:06:12;11.02;;;9.02;;
36233;SDS011;43467;50.890;5.982;2023-06-10T03:08:39;9.98;;;8.98;;
36233;SDS011;43467;50.890;5.982;2023-06-10T03:11:05;11.48;;;8.68;;
36233;SDS011;43467;50.890;5.982;2023-06-10T03:13:31;12.45;;;9.38;;
36233;SDS011;43467;50.890;5.982;2023-06-10T03:15:57;12.73;;;9.55;;
36233;SDS011;43467;50.890;5.982;2023-06-10T03:18:26;10.45;;;8.77;;
36233;SDS011;43467;50.890;5.982;2023-06-10T03:20:52;9.90;;;8.90;;
36233;SDS011;43467;50.890;5.982;2023-06-10T03:23:18;12.38;;;9.18;;
36233;SDS011;43467;50.890;5.982;2023-06-10T03:25:44;13.23;;;9.10;;
36233;SDS011;43467;50.890;5.982;2023-06-10T03:28:10;11.23;;;8.57;;
36233;SDS011;43467;50.890;5.982;2023-06-10T03:30:36;12.65;;;10.00;;
36233;SDS011;43467;50.890;5.982;2023-06-10T03:33:02;12.75;;;10.80;;
36233;SDS011;43467;50.890;5.982;2023-06-10T03:35:28;12.40;;;9.75;;
36233;SDS011;43467;50.890;5.982;2023-06-10T03:37:54;15.93;;;9.50;;
36233;SDS011;43467;50.890;5.982;2023-06-10T03:40:20;14.63;;;9.77;;
36233;SDS011;43467;50.890;5.982;2023-06-10T03:42:45;13.30;;;9.88;;
36233;SDS011;43467;50.890;5.982;2023-06-10T03:45:11;14.98;;;10.35;;
36233;SDS011;43467;50.890;5.982;2023-06-10T03:47:37;12.10;;;9.57;;
36233;SDS011;43467;50.890;5.982;2023-06-10T03:50:03;14.40;;;9.55;;
36233;SDS011;43467;50.890;5.982;2023-06-10T03:52:29;14.45;;;9.73;;
36233;SDS011;43467;50.890;5.982;2023-06-10T03:54:55;10.52;;;9.07;;
36233;SDS011;43467;50.890;5.982;2023-06-10T03:57:21;13.65;;;9.77;;
36233;SDS011;43467;50.890;5.982;2023-06-10T03:59:47;11.93;;;9.82;;
36233;SDS011;43467;50.890;5.982;2023-06-10T04:02:12;14.85;;;9.95;;
36233;SDS011;43467;50.890;5.982;2023-06-10T04:04:38;12.52;;;9.68;;
36233;SDS011;43467;50.890;5.982;2023-06-10T04:07:04;11.18;;;8.98;;
36233;SDS011;43467;50.890;5.982;2023-06-10T04:09:30;14.98;;;9.40;;
36233;SDS011;43467;50.890;5.982;2023-06-10T04:11:56;14.38;;;9.85;;
36233;SDS011;43467;50.890;5.982;2023-06-10T04:14:21;12.23;;;8.65;;
36233;SDS011;43467;50.890;5.982;2023-06-10T04:16:47;12.13;;;9.60;;
36233;SDS011;43467;50.890;5.982;2023-06-10T04:19:12;13.00;;;9.43;;
36233;SDS011;43467;50.890;5.982;2023-06-10T04:21:38;11.10;;;9.57;;
36233;SDS011;43467;50.890;5.982;2023-06-10T04:24:03;13.48;;;9.45;;
36233;SDS011;43467;50.890;5.982;2023-06-10T04:26:29;15.55;;;9.23;;
36233;SDS011;43467;50.890;5.982;2023-06-10T04:28:55;14.77;;;8.90;;
36233;SDS011;43467;50.890;5.982;2023-06-10T04:31:20;12.40;;;10.27;;
36233;SDS011;43467;50.890;5.982;2023-06-10T04:33:46;15.35;;;9.57;;
36233;SDS011;43467;50.890;5.982;2023-06-10T04:36:11;13.52;;;10.18;;
36233;SDS011;43467;50.890;5.982;2023-06-10T04:38:37;16.60;;;9.90;;
36233;SDS011;43467;50.890;5.982;2023-06-10T04:41:03;13.93;;;9.98;;
36233;SDS011;43467;50.890;5.982;2023-06-10T04:43:29;17.30;;;9.95;;
36233;SDS011;43467;50.890;5.982;2023-06-10T04:45:55;13.57;;;9.70;;
36233;SDS011;43467;50.890;5.982;2023-06-10T04:48:21;14.38;;;9.70;;
36233;SDS011;43467;50.890;5.982;2023-06-10T04:50:48;16.20;;;10.63;;
36233;SDS011;43467;50.890;5.982;2023-06-10T04:53:15;12.35;;;9.73;;
36233;SDS011;43467;50.890;5.982;2023-06-10T04:55:41;12.43;;;9.15;;
36233;SDS011;43467;50.890;5.982;2023-06-10T04:58:07;11.57;;;8.75;;
36233;SDS011;43467;50.890;5.982;2023-06-10T05:00:32;12.05;;;8.93;;
36233;SDS011;43467;50.890;5.982;2023-06-10T05:02:58;14.43;;;9.48;;
36233;SDS011;43467;50.890;5.982;2023-06-10T05:05:24;16.52;;;10.70;;
36233;SDS011;43467;50.890;5.982;2023-06-10T05:07:50;22.08;;;10.00;;
36233;SDS011;43467;50.890;5.982;2023-06-10T05:10:15;11.10;;;9.85;;
36233;SDS011;43467;50.890;5.982;2023-06-10T05:12:41;12.45;;;9.38;;
36233;SDS011;43467;50.890;5.982;2023-06-10T05:15:08;15.35;;;9.25;;
36233;SDS011;43467;50.890;5.982;2023-06-10T05:17:34;15.02;;;9.48;;
36233;SDS011;43467;50.890;5.982;2023-06-10T05:20:05;12.02;;;8.82;;
36233;SDS011;43467;50.890;5.982;2023-06-10T05:22:31;14.60;;;9.70;;
36233;SDS011;43467;50.890;5.982;2023-06-10T05:24:57;12.60;;;9.10;;
36233;SDS011;43467;50.890;5.982;2023-06-10T05:27:22;14.43;;;9.38;;
36233;SDS011;43467;50.890;5.982;2023-06-10T05:29:49;14.45;;;10.15;;
36233;SDS011;43467;50.890;5.982;2023-06-10T05:32:16;13.00;;;8.57;;
36233;SDS011;43467;50.890;5.982;2023-06-10T05:34:42;11.93;;;9.05;;
36233;SDS011;43467;50.890;5.982;2023-06-10T05:37:10;12.90;;;8.80;;
36233;SDS011;43467;50.890;5.982;2023-06-10T05:39:36;14.93;;;9.63;;
36233;SDS011;43467;50.890;5.982;2023-06-10T05:42:08;14.55;;;9.18;;
36233;SDS011;43467;50.890;5.982;2023-06-10T05:44:34;17.90;;;9.52;;
36233;SDS011;43467;50.890;5.982;2023-06-10T05:47:00;11.93;;;8.73;;
36233;SDS011;43467;50.890;5.982;2023-06-10T05:49:25;22.95;;;9.93;;
36233;SDS011;43467;50.890;5.982;2023-06-10T05:51:51;11.43;;;8.55;;
36233;SDS011;43467;50.890;5.982;2023-06-10T05:54:17;10.35;;;8.60;;
36233;SDS011;43467;50.890;5.982;2023-06-10T05:56:43;12.38;;;8.93;;
36233;SDS011;43467;50.890;5.982;2023-06-10T05:59:09;13.23;;;9.73;;
36233;SDS011;43467;50.890;5.982;2023-06-10T06:01:35;12.77;;;9.57;;
36233;SDS011;43467;50.890;5.982;2023-06-10T06:04:01;13.80;;;9.18;;
36233;SDS011;43467;50.890;5.982;2023-06-10T06:06:27;13.02;;;9.63;;
36233;SDS011;43467;50.890;5.982;2023-06-10T06:08:52;12.30;;;9.30;;
36233;SDS011;43467;50.890;5.982;2023-06-10T06:11:18;16.80;;;9.27;;
36233;SDS011;43467;50.890;5.982;2023-06-10T06:13:44;11.50;;;9.18;;
36233;SDS011;43467;50.890;5.982;2023-06-10T06:16:10;12.00;;;8.70;;
36233;SDS011;43467;50.890;5.982;2023-06-10T06:18:36;11.15;;;9.13;;
36233;SDS011;43467;50.890;5.982;2023-06-10T06:21:01;12.88;;;8.18;;
36233;SDS011;43467;50.890;5.982;2023-06-10T06:23:27;16.73;;;9.48;;
36233;SDS011;43467;50.890;5.982;2023-06-10T06:25:54;16.35;;;9.05;;
36233;SDS011;43467;50.890;5.982;2023-06-10T06:28:19;11.93;;;8.98;;
36233;SDS011;43467;50.890;5.982;2023-06-10T06:30:47;10.52;;;8.32;;
36233;SDS011;43467;50.890;5.982;2023-06-10T06:33:12;17.50;;;8.70;;
36233;SDS011;43467;50.890;5.982;2023-06-10T06:35:38;11.90;;;8.80;;
36233;SDS011;43467;50.890;5.982;2023-06-10T06:38:05;16.73;;;8.80;;
36233;SDS011;43467;50.890;5.982;2023-06-10T06:40:30;10.27;;;9.10;;
36233;SDS011;43467;50.890;5.982;2023-06-10T06:42:56;13.43;;;8.48;;
36233;SDS011;43467;50.890;5.982;2023-06-10T06:45:22;10.57;;;7.63;;
36233;SDS011;43467;50.890;5.982;2023-06-10T06:47:47;11.77;;;7.55;;
36233;SDS011;43467;50.890;5.982;2023-06-10T06:50:13;14.02;;;8.43;;
36233;SDS011;43467;50.890;5.982;2023-06-10T06:52:39;12.20;;;8.07;;
36233;SDS011;43467;50.890;5.982;2023-06-10T06:55:05;10.23;;;7.82;;
36233;SDS011;43467;50.890;5.982;2023-06-10T06:57:30;13.48;;;8.15;;
36233;SDS011;43467;50.890;5.982;2023-06-10T06:59:56;11.82;;;8.68;;
36233;SDS011;43467;50.890;5.982;2023-06-10T07:02:22;15.20;;;8.52;;
36233;SDS011;43467;50.890;5.982;2023-06-10T07:04:47;10.75;;;7.70;;
36233;SDS011;43467;50.890;5.982;2023-06-10T07:07:14;11.95;;;7.60;;
36233;SDS011;43467;50.890;5.982;2023-06-10T07:09:40;11.98;;;8.00;;
36233;SDS011;43467;50.890;5.982;2023-06-10T07:12:06;12.77;;;7.78;;
36233;SDS011;43467;50.890;5.982;2023-06-10T07:14:32;9.00;;;7.32;;
36233;SDS011;43467;50.890;5.982;2023-06-10T07:16:58;10.98;;;7.88;;
36233;SDS011;43467;50.890;5.982;2023-06-10T07:19:24;10.63;;;8.27;;
36233;SDS011;43467;50.890;5.982;2023-06-10T07:21:49;10.23;;;6.47;;
36233;SDS011;43467;50.890;5.982;2023-06-10T07:24:15;11.45;;;7.78;;
36233;SDS011;43467;50.890;5.982;2023-06-10T07:26:40;11.05;;;8.10;;
36233;SDS011;43467;50.890;5.982;2023-06-10T07:29:06;9.45;;;7.55;;
36233;SDS011;43467;50.890;5.982;2023-06-10T07:31:32;10.93;;;7.43;;
36233;SDS011;43467;50.890;5.982;2023-06-10T07:33:57;10.25;;;7.85;;
36233;SDS011;43467;50.890;5.982;2023-06-10T07:36:23;12.38;;;7.60;;
36233;SDS011;43467;50.890;5.982;2023-06-10T07:38:49;18.10;;;10.68;;
36233;SDS011;43467;50.890;5.982;2023-06-10T07:41:14;11.85;;;8.77;;
36233;SDS011;43467;50.890;5.982;2023-06-10T07:43:42;10.93;;;8.07;;
36233;SDS011;43467;50.890;5.982;2023-06-10T07:46:08;10.23;;;7.30;;
36233;SDS011;43467;50.890;5.982;2023-06-10T07:48:34;10.30;;;6.78;;
36233;SDS011;43467;50.890;5.982;2023-06-10T07:50:59;11.50;;;8.10;;
36233;SDS011;43467;50.890;5.982;2023-06-10T07:53:25;12.50;;;7.45;;
36233;SDS011;43467;50.890;5.982;2023-06-10T07:55:50;13.70;;;7.47;;
36233;SDS011;43467;50.890;5.982;2023-06-10T07:58:16;12.07;;;6.97;;
36233;SDS011;43467;50.890;5.982;2023-06-10T08:00:41;12.85;;;8.27;;
36233;SDS011;43467;50.890;5.982;2023-06-10T08:03:07;15.70;;;8.52;;
36233;SDS011;43467;50.890;5.982;2023-06-10T08:05:33;8.45;;;6.82;;
36233;SDS011;43467;50.890;5.982;2023-06-10T08:07:59;11.70;;;7.75;;
36233;SDS011;43467;50.890;5.982;2023-06-10T08:10:24;10.77;;;7.35;;
36233;SDS011;43467;50.890;5.982;2023-06-10T08:12:50;10.43;;;7.72;;
36233;SDS011;43467;50.890;5.982;2023-06-10T08:15:15;12.23;;;6.97;;
36233;SDS011;43467;50.890;5.982;2023-06-10T08:17:41;15.73;;;7.03;;
36233;SDS011;43467;50.890;5.982;2023-06-10T08:20:07;11.25;;;7.28;;
36233;SDS011;43467;50.890;5.982;2023-06-10T08:22:33;13.18;;;7.55;;
36233;SDS011;43467;50.890;5.982;2023-06-10T08:24:58;10.88;;;6.80;;
36233;SDS011;43467;50.890;5.982;2023-06-10T08:27:24;14.02;;;8.00;;
36233;SDS011;43467;50.890;5.982;2023-06-10T08:29:50;11.65;;;7.18;;
36233;SDS011;43467;50.890;5.982;2023-06-10T08:32:15;12.82;;;7.22;;
36233;SDS011;43467;50.890;5.982;2023-06-10T08:34:41;13.85;;;6.88;;
36233;SDS011;43467;50.890;5.982;2023-06-10T08:37:07;11.75;;;7.07;;
36233;SDS011;43467;50.890;5.982;2023-06-10T08:39:32;9.77;;;7.30;;
36233;SDS011;43467;50.890;5.982;2023-06-10T08:44:36;10.63;;;7.07;;
36233;SDS011;43467;50.890;5.982;2023-06-10T08:47:23;10.38;;;7.30;;
36233;SDS011;43467;50.890;5.982;2023-06-10T08:49:50;10.45;;;7.05;;
36233;SDS011;43467;50.890;5.982;2023-06-10T08:52:18;12.32;;;6.70;;
36233;SDS011;43467;50.890;5.982;2023-06-10T08:54:49;10.85;;;6.55;;
36233;SDS011;43467;50.890;5.982;2023-06-10T08:57:19;8.73;;;6.47;;
36233;SDS011;43467;50.890;5.982;2023-06-10T08:59:47;12.80;;;7.57;;
36233;SDS011;43467;50.890;5.982;2023-06-10T09:02:13;12.70;;;7.10;;
36233;SDS011;43467;50.890;5.982;2023-06-10T09:04:42;12.48;;;7.90;;
36233;SDS011;43467;50.890;5.982;2023-06-10T09:07:09;8.77;;;7.30;;
36233;SDS011;43467;50.890;5.982;2023-06-10T09:09:35;13.80;;;6.53;;
36233;SDS011;43467;50.890;5.982;2023-06-10T09:12:02;11.82;;;7.32;;
36233;SDS011;43467;50.890;5.982;2023-06-10T09:14:28;11.77;;;6.75;;
36233;SDS011;43467;50.890;5.982;2023-06-10T09:16:54;11.05;;;6.45;;
36233;SDS011;43467;50.890;5.982;2023-06-10T09:19:25;11.27;;;6.90;;
36233;SDS011;43467;50.890;5.982;2023-06-10T09:21:53;11.00;;;6.88;;
36233;SDS011;43467;50.890;5.982;2023-06-10T09:24:19;9.02;;;6.00;;
36233;SDS011;43467;50.890;5.982;2023-06-10T09:26:47;8.05;;;6.30;;
36233;SDS011;43467;50.890;5.982;2023-06-10T09:29:13;9.50;;;6.97;;
36233;SDS011;43467;50.890;5.982;2023-06-10T09:31:39;11.10;;;6.90;;
36233;SDS011;43467;50.890;5.982;2023-06-10T09:34:06;12.15;;;7.07;;
36233;SDS011;43467;50.890;5.982;2023-06-10T09:36:40;9.98;;;7.13;;
36233;SDS011;43467;50.890;5.982;2023-06-10T09:39:13;11.30;;;6.72;;
36233;SDS011;43467;50.890;5.982;2023-06-10T09:41:43;7.80;;;6.32;;
36233;SDS011;43467;50.890;5.982;2023-06-10T09:44:13;10.55;;;6.90;;
36233;SDS011;43467;50.890;5.982;2023-06-10T09:46:40;11.18;;;7.05;;
36233;SDS011;43467;50.890;5.982;2023-06-10T09:49:07;13.40;;;7.75;;
36233;SDS011;43467;50.890;5.982;2023-06-10T09:51:33;8.27;;;6.68;;
36233;SDS011;43467;50.890;5.982;2023-06-10T09:53:59;11.85;;;6.57;;
36233;SDS011;43467;50.890;5.982;2023-06-10T09:56:37;9.82;;;6.97;;
36233;SDS011;43467;50.890;5.982;2023-06-10T09:59:05;10.45;;;6.95;;
36233;SDS011;43467;50.890;5.982;2023-06-10T10:01:31;8.25;;;6.60;;
36233;SDS011;43467;50.890;5.982;2023-06-10T10:03:58;11.25;;;7.15;;
36233;SDS011;43467;50.890;5.982;2023-06-10T10:06:24;15.13;;;6.97;;
36233;SDS011;43467;50.890;5.982;2023-06-10T10:08:51;9.00;;;6.28;;
36233;SDS011;43467;50.890;5.982;2023-06-10T10:11:18;11.73;;;7.10;;
36233;SDS011;43467;50.890;5.982;2023-06-10T10:13:50;9.65;;;6.78;;
36233;SDS011;43467;50.890;5.982;2023-06-10T10:16:17;10.93;;;7.82;;
36233;SDS011;43467;50.890;5.982;2023-06-10T10:18:46;7.78;;;6.68;;
36233;SDS011;43467;50.890;5.982;2023-06-10T10:21:22;10.63;;;6.95;;
36233;SDS011;43467;50.890;5.982;2023-06-10T10:26:28;9.05;;;7.18;;
36233;SDS011;43467;50.890;5.982;2023-06-10T10:28:58;14.98;;;7.55;;
36233;SDS011;43467;50.890;5.982;2023-06-10T10:31:48;9.65;;;6.70;;
36233;SDS011;43467;50.890;5.982;2023-06-10T10:34:19;9.68;;;6.45;;
36233;SDS011;43467;50.890;5.982;2023-06-10T10:37:08;10.82;;;6.82;;
36233;SDS011;43467;50.890;5.982;2023-06-10T10:39:36;9.75;;;7.05;;
36233;SDS011;43467;50.890;5.982;2023-06-10T10:42:02;9.57;;;6.85;;
36233;SDS011;43467;50.890;5.982;2023-06-10T10:44:30;9.82;;;6.97;;
36233;SDS011;43467;50.890;5.982;2023-06-10T10:46:57;8.98;;;6.78;;
36233;SDS011;43467;50.890;5.982;2023-06-10T10:49:30;10.65;;;6.43;;
36233;SDS011;43467;50.890;5.982;2023-06-10T10:52:02;9.18;;;6.78;;
36233;SDS011;43467;50.890;5.982;2023-06-10T10:54:36;8.73;;;7.03;;
36233;SDS011;43467;50.890;5.982;2023-06-10T11:02:10;7.30;;;6.22;;
36233;SDS011;43467;50.890;5.982;2023-06-10T11:04:57;9.88;;;6.65;;
36233;SDS011;43467;50.890;5.982;2023-06-10T11:07:25;12.02;;;7.10;;
36233;SDS011;43467;50.890;5.982;2023-06-10T11:15:29;11.27;;;7.85;;
36233;SDS011;43467;50.890;5.982;2023-06-10T11:18:07;7.80;;;7.00;;
36233;SDS011;43467;50.890;5.982;2023-06-10T11:28:36;9.45;;;7.63;;
36233;SDS011;43467;50.890;5.982;2023-06-10T11:31:01;13.70;;;7.30;;
36233;SDS011;43467;50.890;5.982;2023-06-10T11:33:28;10.43;;;7.35;;
36233;SDS011;43467;50.890;5.982;2023-06-10T11:35:56;8.15;;;6.90;;
36233;SDS011;43467;50.890;5.982;2023-06-10T11:38:21;7.88;;;6.68;;
36233;SDS011;43467;50.890;5.982;2023-06-10T11:40:48;9.88;;;7.05;;
36233;SDS011;43467;50.890;5.982;2023-06-10T11:43:15;11.02;;;7.32;;
36233;SDS011;43467;50.890;5.982;2023-06-10T11:45:43;8.82;;;7.35;;
36233;SDS011;43467;50.890;5.982;2023-06-10T11:48:12;8.82;;;7.43;;
36233;SDS011;43467;50.890;5.982;2023-06-10T11:50:38;14.07;;;6.80;;
36233;SDS011;43467;50.890;5.982;2023-06-10T11:53:08;11.13;;;7.15;;
36233;SDS011;43467;50.890;5.982;2023-06-10T11:55:50;9.18;;;7.05;;
36233;SDS011;43467;50.890;5.982;2023-06-10T11:58:19;9.98;;;7.13;;
36233;SDS011;43467;50.890;5.982;2023-06-10T12:00:47;11.85;;;6.95;;
36233;SDS011;43467;50.890;5.982;2023-06-10T12:03:16;8.40;;;6.47;;
36233;SDS011;43467;50.890;5.982;2023-06-10T12:05:57;11.45;;;6.70;;
36233;SDS011;43467;50.890;5.982;2023-06-10T12:08:26;8.93;;;6.50;;
36233;SDS011;43467;50.890;5.982;2023-06-10T12:10:54;8.95;;;6.68;;
36233;SDS011;43467;50.890;5.982;2023-06-10T12:13:22;7.45;;;6.22;;
36233;SDS011;43467;50.890;5.982;2023-06-10T12:15:52;11.25;;;6.13;;
36233;SDS011;43467;50.890;5.982;2023-06-10T12:18:23;6.85;;;6.15;;
36233;SDS011;43467;50.890;5.982;2023-06-10T12:20:50;9.60;;;6.95;;
36233;SDS011;43467;50.890;5.982;2023-06-10T12:23:19;10.30;;;7.15;;
36233;SDS011;43467;50.890;5.982;2023-06-10T12:25:51;12.90;;;6.93;;
36233;SDS011;43467;50.890;5.982;2023-06-10T12:28:24;9.65;;;6.55;;
36233;SDS011;43467;50.890;5.982;2023-06-10T12:31:08;13.48;;;6.10;;
36233;SDS011;43467;50.890;5.982;2023-06-10T12:33:34;9.25;;;6.43;;
36233;SDS011;43467;50.890;5.982;2023-06-10T12:36:00;6.85;;;5.93;;
36233;SDS011;43467;50.890;5.982;2023-06-10T12:38:26;7.18;;;5.72;;
36233;SDS011;43467;50.890;5.982;2023-06-10T12:40:52;10.27;;;5.82;;
36233;SDS011;43467;50.890;5.982;2023-06-10T12:43:24;7.95;;;5.90;;
36233;SDS011;43467;50.890;5.982;2023-06-10T12:45:50;8.73;;;5.82;;
36233;SDS011;43467;50.890;5.982;2023-06-10T12:48:20;8.07;;;6.15;;
36233;SDS011;43467;50.890;5.982;2023-06-10T12:50:57;8.18;;;5.93;;
36233;SDS011;43467;50.890;5.982;2023-06-10T12:53:25;11.43;;;6.28;;
36233;SDS011;43467;50.890;5.982;2023-06-10T12:55:54;8.57;;;6.18;;
36233;SDS011;43467;50.890;5.982;2023-06-10T12:58:23;9.70;;;6.28;;
36233;SDS011;43467;50.890;5.982;2023-06-10T13:00:49;7.97;;;5.55;;
36233;SDS011;43467;50.890;5.982;2023-06-10T13:03:18;8.23;;;5.47;;
36233;SDS011;43467;50.890;5.982;2023-06-10T13:05:46;9.52;;;6.03;;
36233;SDS011;43467;50.890;5.982;2023-06-10T13:08:11;7.53;;;6.15;;
36233;SDS011;43467;50.890;5.982;2023-06-10T13:10:38;7.80;;;5.88;;
36233;SDS011;43467;50.890;5.982;2023-06-10T13:13:05;8.02;;;6.35;;
36233;SDS011;43467;50.890;5.982;2023-06-10T13:15:33;6.32;;;5.65;;
36233;SDS011;43467;50.890;5.982;2023-06-10T13:18:04;7.78;;;5.70;;
36233;SDS011;43467;50.890;5.982;2023-06-10T13:20:32;6.90;;;5.88;;
36233;SDS011;43467;50.890;5.982;2023-06-10T13:22:59;7.68;;;5.97;;
36233;SDS011;43467;50.890;5.982;2023-06-10T13:25:27;7.57;;;6.25;;
36233;SDS011;43467;50.890;5.982;2023-06-10T13:27:55;9.15;;;6.68;;
36233;SDS011;43467;50.890;5.982;2023-06-10T13:30:21;9.40;;;5.90;;
36233;SDS011;43467;50.890;5.982;2023-06-10T13:32:47;8.52;;;6.03;;
36233;SDS011;43467;50.890;5.982;2023-06-10T13:35:15;9.15;;;5.97;;
36233;SDS011;43467;50.890;5.982;2023-06-10T13:37:40;7.15;;;5.75;;
36233;SDS011;43467;50.890;5.982;2023-06-10T13:40:06;6.65;;;5.97;;
36233;SDS011;43467;50.890;5.982;2023-06-10T13:42:35;9.15;;;6.45;;
36233;SDS011;43467;50.890;5.982;2023-06-10T13:45:04;10.63;;;6.47;;
36233;SDS011;43467;50.890;5.982;2023-06-10T13:47:32;11.00;;;7.35;;
36233;SDS011;43467;50.890;5.982;2023-06-10T13:50:00;11.63;;;7.75;;
36233;SDS011;43467;50.890;5.982;2023-06-10T13:52:26;8.25;;;6.88;;
36233;SDS011;43467;50.890;5.982;2023-06-10T13:54:54;9.32;;;7.15;;
36233;SDS011;43467;50.890;5.982;2023-06-10T13:57:21;9.75;;;7.65;;
36233;SDS011;43467;50.890;5.982;2023-06-10T13:59:47;8.70;;;6.75;;
36233;SDS011;43467;50.890;5.982;2023-06-10T14:02:15;9.30;;;6.65;;
36233;SDS011;43467;50.890;5.982;2023-06-10T14:04:41;10.00;;;6.68;;
36233;SDS011;43467;50.890;5.982;2023-06-10T14:07:08;8.27;;;7.43;;
36233;SDS011;43467;50.890;5.982;2023-06-10T14:09:35;10.88;;;7.28;;
36233;SDS011;43467;50.890;5.982;2023-06-10T14:12:05;10.73;;;7.28;;
36233;SDS011;43467;50.890;5.982;2023-06-10T14:14:32;9.02;;;7.28;;
36233;SDS011;43467;50.890;5.982;2023-06-10T14:16:58;11.15;;;7.68;;
36233;SDS011;43467;50.890;5.982;2023-06-10T14:19:25;9.48;;;7.00;;
36233;SDS011;43467;50.890;5.982;2023-06-10T14:21:53;9.88;;;7.38;;
36233;SDS011;43467;50.890;5.982;2023-06-10T14:24:21;9.30;;;7.07;;
36233;SDS011;43467;50.890;5.982;2023-06-10T14:26:47;10.85;;;7.13;;
36233;SDS011;43467;50.890;5.982;2023-06-10T14:29:13;10.10;;;7.28;;
36233;SDS011;43467;50.890;5.982;2023-06-10T14:31:41;9.52;;;7.10;;
36233;SDS011;43467;50.890;5.982;2023-06-10T14:34:09;11.25;;;7.13;;
36233;SDS011;43467;50.890;5.982;2023-06-10T14:36:38;8.70;;;7.20;;
36233;SDS011;43467;50.890;5.982;2023-06-10T14:39:06;8.77;;;7.30;;
36233;SDS011;43467;50.890;5.982;2023-06-10T14:41:35;9.15;;;7.20;;
36233;SDS011;43467;50.890;5.982;2023-06-10T14:44:03;9.82;;;7.68;;
36233;SDS011;43467;50.890;5.982;2023-06-10T14:46:31;8.82;;;6.68;;
36233;SDS011;43467;50.890;5.982;2023-06-10T14:48:59;8.75;;;6.32;;
36233;SDS011;43467;50.890;5.982;2023-06-10T14:51:25;9.57;;;6.78;;
36233;SDS011;43467;50.890;5.982;2023-06-10T14:53:50;10.15;;;6.40;;
36233;SDS011;43467;50.890;5.982;2023-06-10T14:56:16;10.85;;;6.85;;
36233;SDS011;43467;50.890;5.982;2023-06-10T14:58:43;9.00;;;7.15;;
36233;SDS011;43467;50.890;5.982;2023-06-10T15:01:14;7.78;;;6.70;;
36233;SDS011;43467;50.890;5.982;2023-06-10T15:03:45;8.80;;;5.90;;